Time,TemperatureF,DewpointF,PressureIn,WindDirection,WindDirectionDegrees,WindSpeedMPH,WindSpeedGustMPH,Humidity,HourlyPrecipIn,Conditions,Clouds,dailyrainin,SoftwareType,DateUTC
2013-02-20 00:00:00,1.5,-5.7,30.10,WSW,253,3.0,10.0,71,0.00,,---,0.00,VWS V14.01,2013-02-20 06:00:00,
2013-02-20 00:05:00,1.4,-5.8,30.10,West,276,3.0,9.0,71,0.00,,---,0.00,VWS V14.01,2013-02-20 06:05:00,
2013-02-20 00:10:00,1.4,-5.5,30.11,West,259,2.0,9.0,72,0.00,,---,0.00,VWS V14.01,2013-02-20 06:10:00,
2013-02-20 00:15:00,1.3,-5.6,30.11,West,280,3.0,9.0,72,0.00,,---,0.00,VWS V14.01,2013-02-20 06:15:00,
2013-02-20 00:20:00,1.3,-5.6,30.11,WSW,257,4.0,9.0,72,0.00,,---,0.00,VWS V14.01,2013-02-20 06:20:00,
2013-02-20 00:25:00,1.2,-5.7,30.11,WSW,252,3.0,13.0,72,0.00,,---,0.00,VWS V14.01,2013-02-20 06:25:00,
2013-02-20 00:30:00,1.1,-5.8,30.12,West,274,8.0,13.0,72,0.00,,---,0.00,VWS V14.01,2013-02-20 06:30:00,
2013-02-20 00:35:00,1.0,-5.6,30.12,WNW,300,3.0,9.0,73,0.00,,---,0.00,VWS V14.01,2013-02-20 06:35:00,
2013-02-20 00:40:00,0.9,-6.0,30.12,West,259,3.0,10.0,72,0.00,,---,0.00,VWS V14.01,2013-02-20 06:40:00,
2013-02-20 00:45:00,0.9,-5.7,30.12,West,273,2.0,10.0,73,0.00,,---,0.00,VWS V14.01,2013-02-20 06:45:00,
2013-02-20 00:50:00,0.8,-5.8,30.12,West,270,3.0,10.0,73,0.00,,---,0.00,VWS V14.01,2013-02-20 06:50:00,
2013-02-20 00:55:00,0.6,-6.0,30.12,WNW,286,2.0,10.0,73,0.00,,---,0.00,VWS V14.01,2013-02-20 06:55:00,
2013-02-20 01:00:00,0.6,-6.0,30.13,West,281,2.0,10.0,73,0.00,,---,0.00,VWS V14.01,2013-02-20 07:00:00,
2013-02-20 01:05:00,0.6,-5.7,30.13,WNW,283,3.0,12.0,74,0.00,,---,0.00,VWS V14.01,2013-02-20 07:05:00,
2013-02-20 01:10:00,0.5,-5.8,30.13,West,277,8.0,12.0,74,0.00,,---,0.00,VWS V14.01,2013-02-20 07:10:00,
2013-02-20 01:15:00,0.5,-5.8,30.13,West,265,4.0,12.0,74,0.00,,---,0.00,VWS V14.01,2013-02-20 07:15:00,
2013-02-20 01:20:00,0.5,-5.8,30.14,WSW,245,1.0,12.0,74,0.00,,---,0.00,VWS V14.01,2013-02-20 07:20:00,
2013-02-20 01:25:00,0.5,-5.8,30.14,West,271,4.0,12.0,74,0.00,,---,0.00,VWS V14.01,2013-02-20 07:25:00,
2013-02-20 01:30:00,0.5,-5.5,30.14,WNW,302,10.0,17.0,75,0.00,,---,0.00,VWS V14.01,2013-02-20 07:30:00,
2013-02-20 01:35:00,0.5,-5.5,30.14,West,271,1.0,12.0,75,0.00,,---,0.00,VWS V14.01,2013-02-20 07:35:00,
2013-02-20 01:40:00,0.4,-5.9,30.15,WNW,284,6.0,12.0,74,0.00,,---,0.00,VWS V14.01,2013-02-20 07:40:00,
2013-02-20 01:45:00,0.4,-5.6,30.15,West,267,3.0,12.0,75,0.00,,---,0.00,VWS V14.01,2013-02-20 07:45:00,
2013-02-20 01:50:00,0.2,-5.8,30.16,WSW,252,2.0,12.0,75,0.00,,---,0.00,VWS V14.01,2013-02-20 07:50:00,
2013-02-20 01:55:00,0.2,-5.8,30.16,West,263,7.0,12.0,75,0.00,,---,0.00,VWS V14.01,2013-02-20 07:55:00,
2013-02-20 02:00:00,0.1,-5.9,30.16,WSW,245,9.0,12.0,75,0.00,,---,0.00,VWS V14.01,2013-02-20 08:00:00,
2013-02-20 02:05:00,0.1,-5.7,30.17,West,265,4.0,8.0,76,0.00,,---,0.00,VWS V14.01,2013-02-20 08:05:00,
2013-02-20 02:10:00,0.1,-5.7,30.17,West,277,1.0,11.0,76,0.00,,---,0.00,VWS V14.01,2013-02-20 08:10:00,
2013-02-20 02:15:00,0.1,-5.8,30.17,West,267,4.0,11.0,76,0.00,,---,0.00,VWS V14.01,2013-02-20 08:15:00,
2013-02-20 02:20:00,-0.1,-5.8,30.17,West,277,5.0,11.0,76,0.00,,---,0.00,VWS V14.01,2013-02-20 08:20:00,
2013-02-20 02:25:00,-0.2,-5.7,30.17,West,265,0.0,11.0,77,0.00,,---,0.00,VWS V14.01,2013-02-20 08:25:00,
2013-02-20 02:30:00,-0.3,-5.8,30.17,WSW,238,4.0,11.0,77,0.00,,---,0.00,VWS V14.01,2013-02-20 08:30:00,
2013-02-20 02:35:00,-0.3,-5.8,30.17,WNW,286,4.0,12.0,77,0.00,,---,0.00,VWS V14.01,2013-02-20 08:35:00,
2013-02-20 02:40:00,-0.3,-5.8,30.17,WSW,255,2.0,12.0,77,0.00,,---,0.00,VWS V14.01,2013-02-20 08:40:00,
2013-02-20 02:45:00,-0.3,-5.8,30.17,SW,227,1.0,12.0,77,0.00,,---,0.00,VWS V14.01,2013-02-20 08:45:00,
2013-02-20 02:50:00,-0.3,-5.5,30.18,WSW,237,4.0,12.0,78,0.00,,---,0.00,VWS V14.01,2013-02-20 08:50:00,
2013-02-20 02:55:00,-0.3,-5.5,30.18,SSW,195,3.0,12.0,78,0.00,,---,0.00,VWS V14.01,2013-02-20 08:55:00,
2013-02-20 03:00:00,-0.5,-5.7,30.18,WSW,252,3.0,12.0,78,0.00,,---,0.00,VWS V14.01,2013-02-20 09:00:00,
2013-02-20 03:05:00,-0.8,-6.0,30.19,SW,236,4.0,11.0,78,0.00,,---,0.00,VWS V14.01,2013-02-20 09:05:00,
2013-02-20 03:10:00,-0.8,-6.0,30.19,SSW,209,4.0,11.0,78,0.00,,---,0.00,VWS V14.01,2013-02-20 09:10:00,
2013-02-20 03:15:00,-0.9,-5.8,30.19,WSW,253,7.0,13.0,79,0.00,,---,0.00,VWS V14.01,2013-02-20 09:15:00,
2013-02-20 03:20:00,-0.9,-5.8,30.19,West,268,3.0,13.0,79,0.00,,---,0.00,VWS V14.01,2013-02-20 09:20:00,
2013-02-20 03:25:00,-0.9,-5.8,30.19,WSW,252,2.0,13.0,79,0.00,,---,0.00,VWS V14.01,2013-02-20 09:25:00,
2013-02-20 03:30:00,-0.8,-5.7,30.19,WSW,256,4.0,13.0,79,0.00,,---,0.00,VWS V14.01,2013-02-20 09:30:00,
2013-02-20 03:35:00,-0.7,-5.6,30.20,WNW,287,4.0,12.0,79,0.00,,---,0.00,VWS V14.01,2013-02-20 09:35:00,
2013-02-20 03:40:00,-0.7,-5.6,30.20,West,275,10.0,12.0,79,0.00,,---,0.00,VWS V14.01,2013-02-20 09:40:00,
2013-02-20 03:45:00,-0.6,-5.5,30.20,West,274,2.0,12.0,79,0.00,,---,0.00,VWS V14.01,2013-02-20 09:45:00,
2013-02-20 03:50:00,-0.5,-5.2,30.20,West,271,4.0,12.0,80,0.00,,---,0.00,VWS V14.01,2013-02-20 09:50:00,
2013-02-20 03:55:00,-0.4,-5.1,30.20,West,273,8.0,12.0,80,0.00,,---,0.00,VWS V14.01,2013-02-20 09:55:00,
2013-02-20 04:00:00,-0.4,-5.1,30.20,West,273,3.0,12.0,80,0.00,,---,0.00,VWS V14.01,2013-02-20 10:00:00,
2013-02-20 04:05:00,-0.4,-5.1,30.20,West,277,5.0,11.0,80,0.00,,---,0.00,VWS V14.01,2013-02-20 10:05:00,
2013-02-20 04:10:00,-0.4,-5.1,30.20,West,279,3.0,12.0,80,0.00,,---,0.00,VWS V14.01,2013-02-20 10:10:00,
2013-02-20 04:15:00,-0.4,-5.1,30.20,WNW,292,11.0,12.0,80,0.00,,---,0.00,VWS V14.01,2013-02-20 10:15:00,
2013-02-20 04:20:00,-0.4,-5.1,30.20,WNW,290,3.0,12.0,80,0.00,,---,0.00,VWS V14.01,2013-02-20 10:20:00,
2013-02-20 04:25:00,-0.5,-5.2,30.20,West,265,5.0,13.0,80,0.00,,---,0.00,VWS V14.01,2013-02-20 10:25:00,
2013-02-20 04:30:00,-0.5,-5.2,30.20,WNW,285,4.0,14.0,80,0.00,,---,0.00,VWS V14.01,2013-02-20 10:30:00,
2013-02-20 04:35:00,-0.5,-5.2,30.21,WNW,302,6.0,10.0,80,0.00,,---,0.00,VWS V14.01,2013-02-20 10:35:00,
2013-02-20 04:40:00,-0.6,-5.3,30.21,WNW,283,7.0,12.0,80,0.00,,---,0.00,VWS V14.01,2013-02-20 10:40:00,
2013-02-20 04:45:00,-0.7,-5.4,30.21,West,275,3.0,12.0,80,0.00,,---,0.00,VWS V14.01,2013-02-20 10:45:00,
2013-02-20 04:50:00,-0.7,-5.1,30.21,WNW,290,4.0,12.0,81,0.00,,---,0.00,VWS V14.01,2013-02-20 10:50:00,
2013-02-20 04:55:00,-0.9,-5.3,30.22,NW,305,9.0,12.0,81,0.00,,---,0.00,VWS V14.01,2013-02-20 10:55:00,
2013-02-20 05:00:00,-0.9,-5.3,30.22,West,281,9.0,12.0,81,0.00,,---,0.00,VWS V14.01,2013-02-20 11:00:00,
2013-02-20 05:05:00,-1.0,-5.4,30.22,West,277,5.0,12.0,81,0.00,,---,0.00,VWS V14.01,2013-02-20 11:05:00,
2013-02-20 05:10:00,-1.0,-5.4,30.22,WNW,291,4.0,12.0,81,0.00,,---,0.00,VWS V14.01,2013-02-20 11:10:00,
2013-02-20 05:15:00,-1.0,-5.4,30.22,WNW,284,7.0,16.0,81,0.00,,---,0.00,VWS V14.01,2013-02-20 11:15:00,
2013-02-20 05:20:00,-1.0,-5.4,30.22,WNW,291,9.0,16.0,81,0.00,,---,0.00,VWS V14.01,2013-02-20 11:20:00,
2013-02-20 05:25:00,-1.0,-5.2,30.22,West,269,3.0,16.0,82,0.00,,---,0.00,VWS V14.01,2013-02-20 11:25:00,
2013-02-20 05:30:00,-1.0,-5.2,30.22,WNW,296,9.0,16.0,82,0.00,,---,0.00,VWS V14.01,2013-02-20 11:30:00,
2013-02-20 05:35:00,-0.9,-5.1,30.22,NW,308,9.0,13.0,82,0.00,,---,0.00,VWS V14.01,2013-02-20 11:35:00,
2013-02-20 05:40:00,-0.9,-5.1,30.22,WNW,298,2.0,13.0,82,0.00,,---,0.00,VWS V14.01,2013-02-20 11:40:00,
2013-02-20 05:45:00,-0.9,-5.1,30.22,WNW,291,9.0,13.0,82,0.00,,---,0.00,VWS V14.01,2013-02-20 11:45:00,
2013-02-20 05:50:00,-0.9,-5.1,30.22,WNW,293,2.0,13.0,82,0.00,,---,0.00,VWS V14.01,2013-02-20 11:50:00,
2013-02-20 05:55:00,-0.9,-5.1,30.22,WNW,297,3.0,13.0,82,0.00,,---,0.00,VWS V14.01,2013-02-20 11:55:00,
2013-02-20 06:00:00,-0.9,-5.1,30.23,West,265,4.0,13.0,82,0.00,,---,0.00,VWS V14.01,2013-02-20 12:00:00,
2013-02-20 06:05:00,-0.9,-5.1,30.23,West,278,2.0,5.0,82,0.00,,---,0.00,VWS V14.01,2013-02-20 12:05:00,
2013-02-20 06:10:00,-0.9,-4.8,30.23,WNW,287,3.0,11.0,83,0.00,,---,0.00,VWS V14.01,2013-02-20 12:10:00,
2013-02-20 06:15:00,-0.9,-4.8,30.23,West,261,1.0,11.0,83,0.00,,---,0.00,VWS V14.01,2013-02-20 12:15:00,
2013-02-20 06:20:00,-0.8,-4.7,30.24,West,279,2.0,11.0,83,0.00,,---,0.00,VWS V14.01,2013-02-20 12:20:00,
2013-02-20 06:25:00,-0.7,-4.6,30.24,West,259,1.0,11.0,83,0.00,,---,0.00,VWS V14.01,2013-02-20 12:25:00,
2013-02-20 06:30:00,-0.6,-4.5,30.24,SW,223,1.0,11.0,83,0.00,,---,0.00,VWS V14.01,2013-02-20 12:30:00,
2013-02-20 06:35:00,-0.5,-4.4,30.24,WSW,255,1.0,6.0,83,0.00,,---,0.00,VWS V14.01,2013-02-20 12:35:00,
2013-02-20 06:40:00,-0.5,-4.4,30.24,WSW,246,3.0,6.0,83,0.00,,---,0.00,VWS V14.01,2013-02-20 12:40:00,
2013-02-20 06:45:00,-0.6,-4.5,30.24,West,268,1.0,9.0,83,0.00,,---,0.00,VWS V14.01,2013-02-20 12:45:00,
2013-02-20 06:50:00,-0.5,-4.4,30.24,West,270,2.0,9.0,83,0.00,,---,0.00,VWS V14.01,2013-02-20 12:50:00,
2013-02-20 06:55:00,-0.4,-4.3,30.25,WNW,295,1.0,9.0,83,0.00,,---,0.00,VWS V14.01,2013-02-20 12:55:00,
2013-02-20 07:00:00,-0.3,-4.2,30.25,WNW,284,1.0,9.0,83,0.00,,---,0.00,VWS V14.01,2013-02-20 13:00:00,
2013-02-20 07:05:00,-0.3,-4.2,30.24,WNW,300,3.0,8.0,83,0.00,,---,0.00,VWS V14.01,2013-02-20 13:05:00,
2013-02-20 07:10:00,-0.3,-4.2,30.25,West,263,5.0,11.0,83,0.00,,---,0.00,VWS V14.01,2013-02-20 13:10:00,
2013-02-20 07:15:00,-0.2,-4.1,30.25,WNW,287,2.0,11.0,83,0.00,,---,0.00,VWS V14.01,2013-02-20 13:15:00,
2013-02-20 07:20:00,-0.2,-4.1,30.25,WNW,303,5.0,11.0,83,0.00,,---,0.00,VWS V14.01,2013-02-20 13:20:00,
2013-02-20 07:25:00,-0.1,-4.0,30.25,WNW,303,2.0,11.0,83,0.00,,---,0.00,VWS V14.01,2013-02-20 13:25:00,
2013-02-20 07:30:00,-0.1,-4.0,30.25,WNW,284,1.0,11.0,83,0.00,,---,0.00,VWS V14.01,2013-02-20 13:30:00,
2013-02-20 07:35:00,-0.1,-3.9,30.25,WNW,302,8.0,11.0,83,0.00,,---,0.00,VWS V14.01,2013-02-20 13:35:00,
2013-02-20 07:40:00,-0.1,-3.9,30.25,NW,307,0.0,11.0,83,0.00,,---,0.00,VWS V14.01,2013-02-20 13:40:00,
2013-02-20 07:45:00,0.1,-3.8,30.25,WNW,298,2.0,11.0,83,0.00,,---,0.00,VWS V14.01,2013-02-20 13:45:00,
2013-02-20 07:50:00,0.4,-3.5,30.25,WNW,290,0.0,11.0,83,0.00,,---,0.00,VWS V14.01,2013-02-20 13:50:00,
2013-02-20 07:55:00,0.6,-3.3,30.25,West,272,4.0,11.0,83,0.00,,---,0.00,VWS V14.01,2013-02-20 13:55:00,
2013-02-20 08:00:00,0.8,-3.1,30.25,WNW,290,3.0,11.0,83,0.00,,---,0.00,VWS V14.01,2013-02-20 14:00:00,
2013-02-20 08:05:00,1.1,-2.8,30.25,WNW,293,4.0,5.0,83,0.00,,---,0.00,VWS V14.01,2013-02-20 14:05:00,
2013-02-20 08:10:00,1.5,-2.5,30.25,WNW,286,0.0,6.0,83,0.00,,---,0.00,VWS V14.01,2013-02-20 14:10:00,
2013-02-20 08:15:00,1.9,-2.1,30.25,WSW,245,2.0,6.0,83,0.00,,---,0.00,VWS V14.01,2013-02-20 14:15:00,
2013-02-20 08:20:00,2.2,-1.8,30.26,West,269,1.0,8.0,83,0.00,,---,0.00,VWS V14.01,2013-02-20 14:20:00,
2013-02-20 08:25:00,2.6,-1.6,30.25,WNW,286,3.0,8.0,82,0.00,,---,0.00,VWS V14.01,2013-02-20 14:25:00,
2013-02-20 08:30:00,2.8,1.0,30.25,West,267,4.0,4.0,92,0.00,,---,0.00,VWS V14.01,2013-02-20 14:30:00,
2013-02-20 08:35:00,3.2,-1.0,30.25,WNW,286,3.0,7.0,82,0.00,,---,0.00,VWS V14.01,2013-02-20 14:35:00,
2013-02-20 08:40:00,3.6,-0.9,30.25,WNW,293,1.0,7.0,81,0.00,,---,0.00,VWS V14.01,2013-02-20 14:40:00,
2013-02-20 08:45:00,3.9,-0.6,30.25,WSW,252,1.0,9.0,81,0.00,,---,0.00,VWS V14.01,2013-02-20 14:45:00,
2013-02-20 08:50:00,4.4,-0.1,30.25,WNW,296,3.0,11.0,81,0.00,,---,0.00,VWS V14.01,2013-02-20 14:50:00,
2013-02-20 08:55:00,4.7,0.2,30.25,West,278,9.0,13.0,81,0.00,,---,0.00,VWS V14.01,2013-02-20 14:55:00,
2013-02-20 09:00:00,5.0,0.2,30.25,West,271,2.0,2.0,80,0.00,,---,0.00,VWS V14.01,2013-02-20 15:00:00,
2013-02-20 09:05:00,5.3,0.2,30.25,WNW,288,3.0,13.0,79,0.00,,---,0.00,VWS V14.01,2013-02-20 15:05:00,
2013-02-20 09:10:00,5.5,0.4,30.25,NW,306,11.0,15.0,79,0.00,,---,0.00,VWS V14.01,2013-02-20 15:10:00,
2013-02-20 09:15:00,5.7,0.6,30.25,NW,306,13.0,15.0,79,0.00,,---,0.00,VWS V14.01,2013-02-20 15:15:00,
2013-02-20 09:20:00,6.2,1.1,30.25,WNW,298,4.0,15.0,79,0.00,,---,0.00,VWS V14.01,2013-02-20 15:20:00,
2013-02-20 09:25:00,6.7,1.6,30.25,West,264,11.0,15.0,79,0.00,,---,0.00,VWS V14.01,2013-02-20 15:25:00,
2013-02-20 09:30:00,7.2,2.1,30.25,NW,313,11.0,11.0,79,0.00,,---,0.00,VWS V14.01,2013-02-20 15:30:00,
2013-02-20 09:35:00,7.8,2.7,30.25,NW,311,11.0,18.0,79,0.00,,---,0.00,VWS V14.01,2013-02-20 15:35:00,
2013-02-20 09:40:00,8.1,2.7,30.25,WNW,297,12.0,19.0,78,0.00,,---,0.00,VWS V14.01,2013-02-20 15:40:00,
2013-02-20 09:45:00,8.5,3.1,30.25,NW,313,10.0,19.0,78,0.00,,---,0.00,VWS V14.01,2013-02-20 15:45:00,
2013-02-20 09:50:00,8.9,3.5,30.25,WNW,302,2.0,19.0,78,0.00,,---,0.00,VWS V14.01,2013-02-20 15:50:00,
2013-02-20 09:55:00,9.2,3.7,30.25,WNW,298,9.0,19.0,78,0.00,,---,0.00,VWS V14.01,2013-02-20 15:55:00,
2013-02-20 10:00:00,9.6,3.8,30.25,WNW,303,5.0,6.0,77,0.00,,---,0.00,VWS V14.01,2013-02-20 16:00:00,
2013-02-20 10:05:00,9.9,3.9,30.25,WNW,296,3.0,13.0,76,0.00,,---,0.00,VWS V14.01,2013-02-20 16:05:00,
2013-02-20 10:10:00,10.2,4.2,30.25,NW,319,3.0,13.0,76,0.00,,---,0.00,VWS V14.01,2013-02-20 16:10:00,
2013-02-20 10:15:00,10.5,4.4,30.25,NW,315,8.0,13.0,76,0.00,,---,0.00,VWS V14.01,2013-02-20 16:15:00,
2013-02-20 10:20:00,11.0,4.9,30.25,NNW,340,4.0,13.0,76,0.00,,---,0.00,VWS V14.01,2013-02-20 16:20:00,
2013-02-20 10:25:00,11.3,4.9,30.25,WNW,302,11.0,13.0,75,0.00,,---,0.00,VWS V14.01,2013-02-20 16:25:00,
2013-02-20 10:30:00,11.5,5.1,30.25,NNW,338,6.0,6.0,75,0.00,,---,0.00,VWS V14.01,2013-02-20 16:30:00,
2013-02-20 10:35:00,11.8,5.4,30.25,WNW,300,7.0,13.0,75,0.00,,---,0.00,VWS V14.01,2013-02-20 16:35:00,
2013-02-20 10:40:00,12.1,5.4,30.25,NNW,338,6.0,15.0,74,0.00,,---,0.00,VWS V14.01,2013-02-20 16:40:00,
2013-02-20 10:45:00,12.3,5.6,30.25,NNE,13,6.0,15.0,74,0.00,,---,0.00,VWS V14.01,2013-02-20 16:45:00,
2013-02-20 10:50:00,12.8,5.8,30.25,WNW,300,5.0,15.0,73,0.00,,---,0.00,VWS V14.01,2013-02-20 16:50:00,
2013-02-20 10:55:00,12.9,5.6,30.26,WNW,295,4.0,15.0,72,0.00,,---,0.00,VWS V14.01,2013-02-20 16:55:00,
2013-02-20 11:00:00,13.2,6.2,30.25,WNW,298,3.0,15.0,73,0.00,,---,0.00,VWS V14.01,2013-02-20 17:00:00,
2013-02-20 11:05:00,13.8,6.5,30.26,West,281,2.0,10.0,72,0.00,,---,0.00,VWS V14.01,2013-02-20 17:05:00,
2013-02-20 11:10:00,14.0,6.3,30.26,WNW,292,6.0,11.0,71,0.00,,---,0.00,VWS V14.01,2013-02-20 17:10:00,
2013-02-20 11:15:00,14.3,6.6,30.26,NNW,334,3.0,11.0,71,0.00,,---,0.00,VWS V14.01,2013-02-20 17:15:00,
2013-02-20 11:20:00,14.5,6.5,30.26,NW,309,9.0,14.0,70,0.00,,---,0.00,VWS V14.01,2013-02-20 17:20:00,
2013-02-20 11:25:00,14.7,6.7,30.26,NW,315,2.0,14.0,70,0.00,,---,0.00,VWS V14.01,2013-02-20 17:25:00,
2013-02-20 11:30:00,14.9,6.6,30.26,WNW,294,7.0,14.0,69,0.00,,---,0.00,VWS V14.01,2013-02-20 17:30:00,
2013-02-20 11:35:00,15.1,6.8,30.26,NW,321,10.0,10.0,69,0.00,,---,0.00,VWS V14.01,2013-02-20 17:35:00,
2013-02-20 11:40:00,15.4,7.1,30.26,NW,306,5.0,10.0,69,0.00,,---,0.00,VWS V14.01,2013-02-20 17:40:00,
2013-02-20 11:45:00,15.5,7.2,30.27,NW,317,10.0,12.0,69,0.00,,---,0.00,VWS V14.01,2013-02-20 17:45:00,
2013-02-20 11:50:00,15.9,7.2,30.26,NW,317,5.0,12.0,68,0.00,,---,0.00,VWS V14.01,2013-02-20 17:50:00,
2013-02-20 11:55:00,16.2,7.5,30.26,NW,316,6.0,12.0,68,0.00,,---,0.00,VWS V14.01,2013-02-20 17:55:00,
2013-02-20 12:02:00,16.7,7.7,30.25,NNW,345,6.0,6.0,67,0.00,,---,0.00,VWS V14.01,2013-02-20 18:02:00,
2013-02-20 12:09:00,17.0,7.6,30.25,NNW,337,6.0,11.0,66,0.00,,---,0.00,VWS V14.01,2013-02-20 18:09:00,
2013-02-20 12:14:00,17.1,7.7,30.25,NNW,330,5.0,11.0,66,0.00,,---,0.00,VWS V14.01,2013-02-20 18:14:00,
2013-02-20 12:19:00,17.3,7.9,30.25,NW,304,5.0,11.0,66,0.00,,---,0.00,VWS V14.01,2013-02-20 18:19:00,
2013-02-20 12:24:00,17.2,7.5,30.25,NNW,337,3.0,12.0,65,0.00,,---,0.00,VWS V14.01,2013-02-20 18:24:00,
2013-02-20 12:29:00,17.4,8.0,30.25,WNW,287,7.0,12.0,66,0.00,,---,0.00,VWS V14.01,2013-02-20 18:29:00,
2013-02-20 12:34:00,17.5,7.4,30.25,North,349,10.0,11.0,64,0.00,,---,0.00,VWS V14.01,2013-02-20 18:34:00,
2013-02-20 12:39:00,17.5,7.8,30.25,NW,323,2.0,11.0,65,0.00,,---,0.00,VWS V14.01,2013-02-20 18:39:00,
2013-02-20 12:44:00,17.7,7.9,30.25,WNW,298,11.0,12.0,65,0.00,,---,0.00,VWS V14.01,2013-02-20 18:44:00,
2013-02-20 12:49:00,17.6,7.5,30.25,NW,314,2.0,13.0,64,0.00,,---,0.00,VWS V14.01,2013-02-20 18:49:00,
2013-02-20 12:54:00,17.8,7.7,30.25,NNW,330,2.0,13.0,64,0.00,,---,0.00,VWS V14.01,2013-02-20 18:54:00,
2013-02-20 12:59:00,18.1,8.0,30.25,NNW,342,1.0,13.0,64,0.00,,---,0.00,VWS V14.01,2013-02-20 18:59:00,
2013-02-20 13:04:00,18.5,8.0,30.25,WNW,287,3.0,6.0,63,0.00,,---,0.00,VWS V14.01,2013-02-20 19:04:00,
2013-02-20 13:09:00,18.5,8.0,30.25,WNW,300,6.0,10.0,63,0.00,,---,0.00,VWS V14.01,2013-02-20 19:09:00,
2013-02-20 13:14:00,18.4,7.6,30.25,NNW,327,9.0,11.0,62,0.00,,---,0.00,VWS V14.01,2013-02-20 19:14:00,
2013-02-20 13:19:00,18.6,8.1,30.25,NNW,344,2.0,11.0,63,0.00,,---,0.00,VWS V14.01,2013-02-20 19:19:00,
2013-02-20 13:24:00,19.2,8.7,30.25,NW,325,2.0,11.0,63,0.00,,---,0.00,VWS V14.01,2013-02-20 19:24:00,
2013-02-20 13:29:00,19.6,8.7,30.25,NNW,347,11.0,11.0,62,0.00,,---,0.00,VWS V14.01,2013-02-20 19:29:00,
2013-02-20 13:34:00,19.4,8.2,30.25,NW,320,2.0,11.0,61,0.00,,---,0.00,VWS V14.01,2013-02-20 19:34:00,
2013-02-20 13:39:00,19.4,8.5,30.25,NW,323,10.0,11.0,62,0.00,,---,0.00,VWS V14.01,2013-02-20 19:39:00,
2013-02-20 13:44:00,19.5,8.6,30.26,WNW,298,2.0,11.0,62,0.00,,---,0.00,VWS V14.01,2013-02-20 19:44:00,
2013-02-20 13:49:00,19.5,8.6,30.26,WNW,290,0.0,11.0,62,0.00,,---,0.00,VWS V14.01,2013-02-20 19:49:00,
2013-02-20 13:54:00,20.1,9.5,30.26,WNW,296,6.0,11.0,63,0.00,,---,0.00,VWS V14.01,2013-02-20 19:54:00,
2013-02-20 13:59:00,20.2,8.6,30.26,WNW,300,3.0,11.0,60,0.00,,---,0.00,VWS V14.01,2013-02-20 19:59:00,
2013-02-20 14:04:00,20.1,8.5,30.26,WNW,298,3.0,5.0,60,0.00,,---,0.00,VWS V14.01,2013-02-20 20:04:00,
2013-02-20 14:09:00,20.3,9.0,30.26,NNW,331,4.0,7.0,61,0.00,,---,0.00,VWS V14.01,2013-02-20 20:09:00,
2013-02-20 14:14:00,20.4,8.0,30.26,NW,309,1.0,7.0,58,0.00,,---,0.00,VWS V14.01,2013-02-20 20:14:00,
2013-02-20 14:19:00,20.8,9.1,30.26,NNW,332,5.0,10.0,60,0.00,,---,0.00,VWS V14.01,2013-02-20 20:19:00,
2013-02-20 14:24:00,21.1,8.3,30.27,WNW,296,4.0,10.0,57,0.00,,---,0.00,VWS V14.01,2013-02-20 20:24:00,
2013-02-20 14:29:00,21.0,8.6,30.27,WNW,301,2.0,10.0,58,0.00,,---,0.00,VWS V14.01,2013-02-20 20:29:00,
2013-02-20 14:34:00,21.3,8.8,30.27,NNW,334,5.0,10.0,58,0.00,,---,0.00,VWS V14.01,2013-02-20 20:34:00,
2013-02-20 14:39:00,21.1,8.3,30.27,NNW,329,5.0,10.0,57,0.00,,---,0.00,VWS V14.01,2013-02-20 20:39:00,
2013-02-20 14:46:00,21.0,7.8,30.27,NW,313,3.0,10.0,56,0.00,,---,0.00,VWS V14.01,2013-02-20 20:46:00,
2013-02-20 14:51:00,21.4,8.6,30.27,WNW,298,4.0,10.0,57,0.00,,---,0.00,VWS V14.01,2013-02-20 20:51:00,
2013-02-20 14:56:00,21.6,8.7,30.27,NNW,339,3.0,10.0,57,0.00,,---,0.00,VWS V14.01,2013-02-20 20:56:00,
2013-02-20 15:01:00,22.0,9.9,30.27,North,5,2.0,2.0,59,0.00,,---,0.00,VWS V14.01,2013-02-20 21:01:00,
2013-02-20 15:06:00,22.1,8.4,30.27,NW,306,5.0,6.0,55,0.00,,---,0.00,VWS V14.01,2013-02-20 21:06:00,
2013-02-20 15:11:00,21.7,8.8,30.27,NW,308,5.0,7.0,57,0.00,,---,0.00,VWS V14.01,2013-02-20 21:11:00,
2013-02-20 15:16:00,21.8,8.9,30.27,NW,311,2.0,8.0,57,0.00,,---,0.00,VWS V14.01,2013-02-20 21:16:00,
2013-02-20 15:21:00,22.0,8.7,30.27,North,351,4.0,8.0,56,0.00,,---,0.00,VWS V14.01,2013-02-20 21:21:00,
2013-02-20 15:26:00,21.9,9.4,30.27,NW,325,0.0,8.0,58,0.00,,---,0.00,VWS V14.01,2013-02-20 21:26:00,
2013-02-20 15:31:00,22.3,9.0,30.27,NW,309,1.0,2.0,56,0.00,,---,0.00,VWS V14.01,2013-02-20 21:31:00,
2013-02-20 15:36:00,22.5,8.8,30.27,NNW,331,3.0,5.0,55,0.00,,---,0.00,VWS V14.01,2013-02-20 21:36:00,
2013-02-20 15:41:00,22.5,9.2,30.26,North,10,6.0,9.0,56,0.00,,---,0.00,VWS V14.01,2013-02-20 21:41:00,
2013-02-20 15:46:00,22.3,9.0,30.27,NNE,12,5.0,10.0,56,0.00,,---,0.00,VWS V14.01,2013-02-20 21:46:00,
2013-02-20 15:51:00,22.1,9.2,30.27,WNW,303,5.0,10.0,57,0.00,,---,0.00,VWS V14.01,2013-02-20 21:51:00,
2013-02-20 15:56:00,22.1,9.6,30.27,WNW,290,3.0,10.0,58,0.00,,---,0.00,VWS V14.01,2013-02-20 21:56:00,
2013-02-20 16:01:00,22.1,8.4,30.27,NW,304,5.0,6.0,55,0.00,,---,0.00,VWS V14.01,2013-02-20 22:01:00,
2013-02-20 16:07:00,21.8,7.7,30.27,NW,313,6.0,6.0,54,0.00,,---,0.00,VWS V14.01,2013-02-20 22:07:00,
2013-02-20 16:12:00,21.7,8.0,30.27,WNW,298,4.0,11.0,55,0.00,,---,0.00,VWS V14.01,2013-02-20 22:12:00,
2013-02-20 16:17:00,21.8,8.1,30.27,WNW,295,7.0,11.0,55,0.00,,---,0.00,VWS V14.01,2013-02-20 22:17:00,
2013-02-20 16:22:00,21.6,7.9,30.27,WNW,300,6.0,11.0,55,0.00,,---,0.00,VWS V14.01,2013-02-20 22:22:00,
2013-02-20 16:27:00,21.4,8.1,30.27,WNW,301,3.0,11.0,56,0.00,,---,0.00,VWS V14.01,2013-02-20 22:27:00,
2013-02-20 16:32:00,21.4,8.1,30.27,NW,317,6.0,6.0,56,0.00,,---,0.00,VWS V14.01,2013-02-20 22:32:00,
2013-02-20 16:37:00,21.2,8.4,30.27,WNW,302,1.0,11.0,57,0.00,,---,0.00,VWS V14.01,2013-02-20 22:37:00,
2013-02-20 16:42:00,20.9,8.5,30.27,NW,309,3.0,11.0,58,0.00,,---,0.00,VWS V14.01,2013-02-20 22:42:00,
2013-02-20 16:47:00,20.7,8.3,30.28,NW,311,2.0,11.0,58,0.00,,---,0.00,VWS V14.01,2013-02-20 22:47:00,
2013-02-20 16:52:00,20.7,8.3,30.28,WNW,301,6.0,11.0,58,0.00,,---,0.00,VWS V14.01,2013-02-20 22:52:00,
2013-02-20 16:57:00,20.4,8.4,30.28,NW,311,4.0,11.0,59,0.00,,---,0.00,VWS V14.01,2013-02-20 22:57:00,
2013-02-20 17:02:00,20.3,8.3,30.27,WNW,301,8.0,12.0,59,0.00,,---,0.00,VWS V14.01,2013-02-20 23:02:00,
2013-02-20 17:07:00,20.0,8.0,30.28,NW,306,4.0,12.0,59,0.00,,---,0.00,VWS V14.01,2013-02-20 23:07:00,
2013-02-20 17:12:00,19.8,8.2,30.28,NW,306,4.0,12.0,60,0.00,,---,0.00,VWS V14.01,2013-02-20 23:12:00,
2013-02-20 17:19:00,19.7,8.1,30.28,WNW,301,5.0,12.0,60,0.00,,---,0.00,VWS V14.01,2013-02-20 23:19:00,
2013-02-20 17:24:00,19.5,7.9,30.28,WNW,297,2.0,12.0,60,0.00,,---,0.00,VWS V14.01,2013-02-20 23:24:00,
2013-02-20 17:29:00,19.3,8.1,30.27,NW,307,5.0,12.0,61,0.00,,---,0.00,VWS V14.01,2013-02-20 23:29:00,
2013-02-20 17:34:00,19.1,7.9,30.27,NW,308,3.0,10.0,61,0.00,,---,0.00,VWS V14.01,2013-02-20 23:34:00,
2013-02-20 17:39:00,18.9,8.1,30.27,WNW,293,3.0,11.0,62,0.00,,---,0.00,VWS V14.01,2013-02-20 23:39:00,
2013-02-20 17:44:00,18.7,7.9,30.27,NW,305,9.0,11.0,62,0.00,,---,0.00,VWS V14.01,2013-02-20 23:44:00,
2013-02-20 17:49:00,18.5,7.7,30.27,WNW,294,4.0,11.0,62,0.00,,---,0.00,VWS V14.01,2013-02-20 23:49:00,
2013-02-20 17:54:00,18.4,7.6,30.27,NW,306,4.0,11.0,62,0.00,,---,0.00,VWS V14.01,2013-02-20 23:54:00,
2013-02-20 17:59:00,18.3,7.8,30.27,WNW,300,3.0,11.0,63,0.00,,---,0.00,VWS V14.01,2013-02-20 23:59:00,
2013-02-20 18:04:00,18.1,8.0,30.27,WNW,303,3.0,5.0,64,0.00,,---,0.00,VWS V14.01,2013-02-21 00:04:00,
2013-02-20 18:09:00,18.1,7.6,30.27,WNW,303,3.0,6.0,63,0.00,,---,0.00,VWS V14.01,2013-02-21 00:09:00,
2013-02-20 18:14:00,18.0,7.5,30.27,WNW,300,3.0,6.0,63,0.00,,---,0.00,VWS V14.01,2013-02-21 00:14:00,
2013-02-20 18:19:00,17.9,7.8,30.27,NW,309,3.0,6.0,64,0.00,,---,0.00,VWS V14.01,2013-02-21 00:19:00,
2013-02-20 18:24:00,17.8,7.3,30.27,WNW,301,1.0,6.0,63,0.00,,---,0.00,VWS V14.01,2013-02-21 00:24:00,
2013-02-20 18:29:00,17.7,7.3,30.26,WNW,303,1.0,6.0,63,0.00,,---,0.00,VWS V14.01,2013-02-21 00:29:00,
2013-02-20 18:34:00,17.5,7.1,30.26,WNW,288,2.0,6.0,63,0.00,,---,0.00,VWS V14.01,2013-02-21 00:34:00,
2013-02-20 18:39:00,17.3,7.2,30.26,NW,320,4.0,7.0,64,0.00,,---,0.00,VWS V14.01,2013-02-21 00:39:00,
2013-02-20 18:44:00,17.2,7.1,30.26,WNW,290,5.0,11.0,64,0.00,,---,0.00,VWS V14.01,2013-02-21 00:44:00,
2013-02-20 18:48:00,17.0,6.9,30.26,NW,320,4.0,11.0,64,0.00,,---,0.00,VWS V14.01,2013-02-21 00:48:00,
2013-02-20 18:53:00,17.0,7.3,30.25,WNW,303,4.0,12.0,65,0.00,,---,0.00,VWS V14.01,2013-02-21 00:53:00,
2013-02-20 18:58:00,16.8,7.4,30.26,WNW,300,4.0,12.0,66,0.00,,---,0.00,VWS V14.01,2013-02-21 00:58:00,
2013-02-20 19:03:00,16.6,7.2,30.25,NW,316,5.0,8.0,66,0.00,,---,0.00,VWS V14.01,2013-02-21 01:03:00,
2013-02-20 19:08:00,16.5,7.1,30.25,NW,305,4.0,10.0,66,0.00,,---,0.00,VWS V14.01,2013-02-21 01:08:00,
2013-02-20 19:13:00,16.3,7.3,30.25,NW,304,4.0,11.0,67,0.00,,---,0.00,VWS V14.01,2013-02-21 01:13:00,
2013-02-20 19:18:00,16.1,7.1,30.25,WNW,303,5.0,11.0,67,0.00,,---,0.00,VWS V14.01,2013-02-21 01:18:00,
2013-02-20 19:23:00,15.9,6.9,30.25,NW,304,8.0,11.0,67,0.00,,---,0.00,VWS V14.01,2013-02-21 01:23:00,
2013-02-20 19:28:00,15.7,7.0,30.25,NW,304,4.0,11.0,68,0.00,,---,0.00,VWS V14.01,2013-02-21 01:28:00,
2013-02-20 19:33:00,15.5,6.8,30.25,WNW,296,4.0,5.0,68,0.00,,---,0.00,VWS V14.01,2013-02-21 01:33:00,
2013-02-20 19:38:00,15.4,6.7,30.25,NW,306,6.0,9.0,68,0.00,,---,0.00,VWS V14.01,2013-02-21 01:38:00,
2013-02-20 19:43:00,15.4,6.7,30.26,WNW,300,3.0,9.0,68,0.00,,---,0.00,VWS V14.01,2013-02-21 01:43:00,
2013-02-20 19:48:00,15.3,6.7,30.25,NW,304,3.0,9.0,68,0.00,,---,0.00,VWS V14.01,2013-02-21 01:48:00,
2013-02-20 19:53:00,15.2,6.9,30.25,NW,311,3.0,9.0,69,0.00,,---,0.00,VWS V14.01,2013-02-21 01:53:00,
2013-02-20 19:58:00,15.0,6.7,30.25,NW,324,2.0,9.0,69,0.00,,---,0.00,VWS V14.01,2013-02-21 01:58:00,
2013-02-20 20:03:00,14.9,8.7,30.25,NW,311,2.0,6.0,76,0.00,,---,0.00,VWS V14.01,2013-02-21 02:03:00,
2013-02-20 20:08:00,14.8,6.8,30.25,North,355,2.0,8.0,70,0.00,,---,0.00,VWS V14.01,2013-02-21 02:08:00,
2013-02-20 20:13:00,14.7,6.7,30.25,North,355,2.0,8.0,70,0.00,,---,0.00,VWS V14.01,2013-02-21 02:13:00,
2013-02-20 20:18:00,14.5,6.5,30.25,NW,312,3.0,9.0,70,0.00,,---,0.00,VWS V14.01,2013-02-21 02:18:00,
2013-02-20 20:23:00,14.3,6.3,30.24,NW,322,6.0,10.0,70,0.00,,---,0.00,VWS V14.01,2013-02-21 02:23:00,
2013-02-20 20:28:00,14.3,6.3,30.24,NNW,340,6.0,12.0,70,0.00,,---,0.00,VWS V14.01,2013-02-21 02:28:00,
2013-02-20 20:33:00,14.5,6.5,30.24,North,355,3.0,12.0,70,0.00,,---,0.00,VWS V14.01,2013-02-21 02:33:00,
2013-02-20 20:38:00,14.6,6.3,30.24,North,349,11.0,13.0,69,0.00,,---,0.00,VWS V14.01,2013-02-21 02:38:00,
2013-02-20 20:43:00,14.8,6.5,30.24,NNW,337,3.0,14.0,69,0.00,,---,0.00,VWS V14.01,2013-02-21 02:43:00,
2013-02-20 20:48:00,14.8,6.5,30.24,North,355,7.0,14.0,69,0.00,,---,0.00,VWS V14.01,2013-02-21 02:48:00,
2013-02-20 20:53:00,14.6,6.3,30.24,North,9,11.0,14.0,69,0.00,,---,0.00,VWS V14.01,2013-02-21 02:53:00,
2013-02-20 20:58:00,14.4,6.1,30.24,NNE,24,7.0,14.0,69,0.00,,---,0.00,VWS V14.01,2013-02-21 02:58:00,
2013-02-20 21:03:00,14.3,6.3,30.24,NNE,22,11.0,14.0,70,0.00,,---,0.00,VWS V14.01,2013-02-21 03:03:00,
2013-02-20 21:08:00,14.3,6.3,30.24,North,355,6.0,14.0,70,0.00,,---,0.00,VWS V14.01,2013-02-21 03:08:00,
2013-02-20 21:13:00,14.1,6.1,30.24,NNE,25,3.0,14.0,70,0.00,,---,0.00,VWS V14.01,2013-02-21 03:13:00,
2013-02-20 21:18:00,14.0,6.0,30.24,NNE,15,13.0,14.0,70,0.00,,---,0.00,VWS V14.01,2013-02-21 03:18:00,
2013-02-20 21:23:00,13.9,6.2,30.24,North,5,4.0,14.0,71,0.00,,---,0.00,VWS V14.01,2013-02-21 03:23:00,
2013-02-20 21:28:00,13.8,6.2,30.25,NNE,16,9.0,14.0,71,0.00,,---,0.00,VWS V14.01,2013-02-21 03:28:00,
2013-02-20 21:33:00,13.7,6.1,30.24,NNW,335,9.0,14.0,71,0.00,,---,0.00,VWS V14.01,2013-02-21 03:33:00,
2013-02-20 21:38:00,13.6,6.0,30.25,NW,320,5.0,15.0,71,0.00,,---,0.00,VWS V14.01,2013-02-21 03:38:00,
2013-02-20 21:43:00,13.4,6.1,30.25,North,5,4.0,15.0,72,0.00,,---,0.00,VWS V14.01,2013-02-21 03:43:00,
2013-02-20 21:48:00,13.3,6.0,30.25,NNW,331,4.0,15.0,72,0.00,,---,0.00,VWS V14.01,2013-02-21 03:48:00,
2013-02-20 21:53:00,13.2,5.9,30.25,NW,322,2.0,15.0,72,0.00,,---,0.00,VWS V14.01,2013-02-21 03:53:00,
2013-02-20 21:58:00,13.1,6.1,30.25,North,5,6.0,15.0,73,0.00,,---,0.00,VWS V14.01,2013-02-21 03:58:00,
2013-02-20 22:03:00,13.0,6.0,30.25,NNW,336,3.0,9.0,73,0.00,,---,0.00,VWS V14.01,2013-02-21 04:03:00,
2013-02-20 22:08:00,12.8,5.8,30.26,NNW,334,2.0,10.0,73,0.00,,---,0.00,VWS V14.01,2013-02-21 04:08:00,
2013-02-20 22:13:00,12.8,6.1,30.26,WNW,293,3.0,12.0,74,0.00,,---,0.00,VWS V14.01,2013-02-21 04:13:00,
2013-02-20 22:18:00,12.7,6.3,30.26,NNW,327,2.0,12.0,75,0.00,,---,0.00,VWS V14.01,2013-02-21 04:18:00,
2013-02-20 22:23:00,12.6,5.9,30.26,NW,319,3.0,12.0,74,0.00,,---,0.00,VWS V14.01,2013-02-21 04:23:00,
2013-02-20 22:28:00,12.5,5.8,30.27,NNW,331,2.0,12.0,74,0.00,,---,0.00,VWS V14.01,2013-02-21 04:28:00,
2013-02-20 22:33:00,12.3,5.9,30.27,North,11,5.0,9.0,75,0.00,,---,0.00,VWS V14.01,2013-02-21 04:33:00,
2013-02-20 22:38:00,12.3,5.9,30.27,North,5,1.0,9.0,75,0.00,,---,0.00,VWS V14.01,2013-02-21 04:38:00,
2013-02-20 22:43:00,12.1,5.7,30.27,North,350,2.0,9.0,75,0.00,,---,0.00,VWS V14.01,2013-02-21 04:43:00,
2013-02-20 22:48:00,12.0,5.6,30.28,NW,312,3.0,9.0,75,0.00,,---,0.00,VWS V14.01,2013-02-21 04:48:00,
2013-02-20 22:53:00,11.9,5.8,30.28,NE,39,3.0,9.0,76,0.00,,---,0.00,VWS V14.01,2013-02-21 04:53:00,
2013-02-20 22:58:00,11.7,5.3,30.28,NE,50,0.0,12.0,75,0.00,,---,0.00,VWS V14.01,2013-02-21 04:58:00,
2013-02-20 23:00:00,11.6,5.5,30.28,NNE,26,4.0,12.0,76,0.00,,---,0.00,VWS V14.01,2013-02-21 05:00:00,
2013-02-20 23:05:00,11.4,5.3,30.27,NNE,24,4.0,14.0,76,0.00,,---,0.00,VWS V14.01,2013-02-21 05:05:00,
2013-02-20 23:10:00,11.2,5.1,30.27,North,360,6.0,14.0,76,0.00,,---,0.00,VWS V14.01,2013-02-21 05:10:00,
2013-02-20 23:15:00,11.0,4.9,30.27,North,355,3.0,14.0,76,0.00,,---,0.00,VWS V14.01,2013-02-21 05:15:00,
2013-02-20 23:20:00,10.8,5.0,30.28,North,11,4.0,14.0,77,0.00,,---,0.00,VWS V14.01,2013-02-21 05:20:00,
2013-02-20 23:25:00,10.6,4.8,30.28,NE,38,2.0,14.0,77,0.00,,---,0.00,VWS V14.01,2013-02-21 05:25:00,
2013-02-20 23:30:00,10.4,4.6,30.28,North,350,0.0,14.0,77,0.00,,---,0.00,VWS V14.01,2013-02-21 05:30:00,
2013-02-20 23:35:00,10.3,4.5,30.28,NE,50,0.0,6.0,77,0.00,,---,0.00,VWS V14.01,2013-02-21 05:35:00,
2013-02-20 23:40:00,10.1,4.6,30.28,North,360,1.0,6.0,78,0.00,,---,0.00,VWS V14.01,2013-02-21 05:40:00,
2013-02-20 23:45:00,10.0,4.5,30.28,NE,49,2.0,6.0,78,0.00,,---,0.00,VWS V14.01,2013-02-21 05:45:00,
2013-02-20 23:50:00,9.8,4.3,30.28,North,11,2.0,6.0,78,0.00,,---,0.00,VWS V14.01,2013-02-21 05:50:00,
2013-02-20 23:55:00,9.6,4.4,30.28,NE,53,3.0,6.0,79,0.00,,---,0.00,VWS V14.01,2013-02-21 05:55:00,